createdAt,value
2022-07-31T00:00:20.469Z,21.23
2022-07-31T00:02:22.140Z,21.26
2022-07-31T00:04:24.111Z,21.25
2022-07-31T00:06:25.897Z,21.26
2022-07-31T00:08:27.698Z,21.27
2022-07-31T00:10:29.513Z,21.28
2022-07-31T00:12:31.420Z,21.31
2022-07-31T00:14:33.059Z,21.32
2022-07-31T00:16:34.994Z,21.37
2022-07-31T00:18:36.772Z,21.33
2022-07-31T00:20:38.463Z,21.32
2022-07-31T00:22:41.278Z,21.32
2022-07-31T00:24:42.871Z,21.30
2022-07-31T00:26:44.489Z,21.31
2022-07-31T00:28:47.812Z,21.22
2022-07-31T00:30:49.532Z,21.18
2022-07-31T00:32:51.989Z,21.20
2022-07-31T00:34:53.885Z,21.19
2022-07-31T00:36:55.580Z,21.22
2022-07-31T00:38:57.333Z,21.22
2022-07-31T00:40:58.987Z,21.25
2022-07-31T00:43:00.569Z,21.26
2022-07-31T00:45:02.322Z,21.30
2022-07-31T00:47:04.840Z,21.26
2022-07-31T00:49:12.593Z,21.26
2022-07-31T00:51:14.348Z,21.23
2022-07-31T00:53:16.023Z,21.22
2022-07-31T00:55:17.669Z,21.20
2022-07-31T00:57:19.523Z,21.19
2022-07-31T00:59:24.753Z,21.13
2022-07-31T01:01:27.811Z,21.09
2022-07-31T01:03:29.695Z,21.08
2022-07-31T01:05:31.575Z,21.09
2022-07-31T01:07:33.280Z,21.07
2022-07-31T01:09:34.959Z,21.05
2022-07-31T01:11:45.233Z,21.01
2022-07-31T01:13:57.333Z,21.01
2022-07-31T01:16:00.249Z,20.98
2022-07-31T01:18:02.033Z,20.94
2022-07-31T01:20:04.323Z,20.94
2022-07-31T01:22:33.676Z,20.98
2022-07-31T01:25:04.458Z,21.01
2022-07-31T01:27:27.734Z,21.06
2022-07-31T01:29:33.014Z,21.06
2022-07-31T01:31:54.080Z,20.99
2022-07-31T01:34:28.227Z,20.98
2022-07-31T01:36:35.210Z,21.00
2022-07-31T01:38:42.509Z,20.98
2022-07-31T01:40:51.073Z,20.98
2022-07-31T01:42:57.061Z,20.92
2022-07-31T01:45:00.765Z,20.91
2022-07-31T01:47:03.877Z,20.96
2022-07-31T01:49:06.188Z,21.01
2022-07-31T01:51:09.040Z,20.97
2022-07-31T01:53:14.292Z,21.00
2022-07-31T01:55:16.888Z,21.00
2022-07-31T01:57:19.130Z,21.01
2022-07-31T01:59:22.811Z,21.01
2022-07-31T02:01:27.515Z,21.02
2022-07-31T02:03:43.950Z,21.03
2022-07-31T02:05:47.998Z,21.06
2022-07-31T02:07:49.858Z,21.05
2022-07-31T02:09:58.863Z,21.06
2022-07-31T02:12:01.359Z,21.00
2022-07-31T02:14:05.414Z,20.81
2022-07-31T02:16:07.340Z,20.70
2022-07-31T02:18:10.608Z,20.65
2022-07-31T02:20:13.299Z,20.60
2022-07-31T02:22:15.523Z,20.62
2022-07-31T02:24:17.743Z,20.55
2022-07-31T02:26:19.672Z,20.54
2022-07-31T02:28:22.301Z,20.48
2022-07-31T02:30:26.373Z,20.48
2022-07-31T02:32:28.749Z,20.45
2022-07-31T02:34:31.313Z,19.58
2022-07-31T02:36:34.475Z,19.04
2022-07-31T02:38:36.464Z,18.71
2022-07-31T02:40:39.866Z,18.57
2022-07-31T02:42:46.082Z,18.60
2022-07-31T02:44:47.737Z,18.79
2022-07-31T02:46:49.542Z,18.86
2022-07-31T02:48:51.791Z,18.74
2022-07-31T02:50:53.735Z,18.71
2022-07-31T02:52:55.557Z,18.65
2022-07-31T02:54:58.402Z,18.67
2022-07-31T02:57:00.131Z,18.60
2022-07-31T02:59:02.713Z,18.59
2022-07-31T03:01:06.091Z,18.52
2022-07-31T03:03:07.893Z,18.66
2022-07-31T03:05:09.705Z,18.89
2022-07-31T03:07:11.517Z,19.05
2022-07-31T03:09:13.189Z,19.22
2022-07-31T03:11:15.079Z,19.09
2022-07-31T03:13:17.347Z,19.13
2022-07-31T03:15:21.444Z,19.22
2022-07-31T03:17:23.655Z,19.14
2022-07-31T03:19:40.265Z,19.20
2022-07-31T03:21:42.193Z,19.24
2022-07-31T03:23:43.962Z,19.27
2022-07-31T03:25:46.141Z,19.31
2022-07-31T03:27:55.628Z,19.34
2022-07-31T03:29:58.397Z,19.14
2022-07-31T03:32:00.983Z,19.07
2022-07-31T03:34:02.836Z,18.75
2022-07-31T03:36:04.679Z,18.60
2022-07-31T03:38:38.352Z,18.61
2022-07-31T03:40:28.113Z,18.44
2022-07-31T03:42:30.053Z,18.50
2022-07-31T03:44:32.889Z,18.41
2022-07-31T03:46:34.812Z,18.35
2022-07-31T03:48:36.598Z,18.26
2022-07-31T03:50:39.176Z,18.34
2022-07-31T03:52:40.969Z,18.53
2022-07-31T03:54:42.925Z,18.64
2022-07-31T03:56:48.673Z,18.73
2022-07-31T03:58:52.582Z,18.85
2022-07-31T04:00:54.556Z,18.82
2022-07-31T04:02:57.672Z,18.87
2022-07-31T04:04:59.574Z,18.94
2022-07-31T04:07:01.297Z,19.05
2022-07-31T04:09:18.578Z,19.02
2022-07-31T04:11:20.357Z,19.02
2022-07-31T04:13:22.023Z,19.05
2022-07-31T04:15:24.207Z,19.13
2022-07-31T04:17:26.045Z,19.23
2022-07-31T04:19:31.072Z,19.21
2022-07-31T04:21:32.748Z,19.21
2022-07-31T04:23:34.411Z,19.17
2022-07-31T04:25:36.075Z,19.23
2022-07-31T04:27:48.828Z,19.38
2022-07-31T04:29:50.696Z,19.47
2022-07-31T04:31:55.993Z,19.52
2022-07-31T04:33:58.108Z,19.53
2022-07-31T04:35:59.754Z,19.63
2022-07-31T04:38:01.605Z,19.69
2022-07-31T04:40:03.951Z,19.80
2022-07-31T04:42:10.720Z,19.81
2022-07-31T04:44:13.207Z,19.94
2022-07-31T04:46:17.719Z,20.02
2022-07-31T04:48:19.641Z,20.12
2022-07-31T04:50:21.431Z,20.17
2022-07-31T04:52:23.060Z,20.16
2022-07-31T04:54:24.784Z,20.07
2022-07-31T04:56:42.394Z,20.10
2022-07-31T04:58:44.040Z,20.16
2022-07-31T05:00:45.649Z,20.08
2022-07-31T05:02:47.392Z,20.10
2022-07-31T05:04:56.302Z,20.15
2022-07-31T05:06:59.024Z,20.17
2022-07-31T05:09:03.356Z,20.22
2022-07-31T05:11:23.562Z,20.31
2022-07-31T05:13:25.209Z,20.44
2022-07-31T05:15:27.424Z,20.48
2022-07-31T05:17:29.042Z,20.45
2022-07-31T05:19:30.814Z,20.49
2022-07-31T05:21:32.706Z,20.55
2022-07-31T05:23:34.963Z,20.57
2022-07-31T05:25:36.733Z,20.57
2022-07-31T05:27:39.167Z,20.60
2022-07-31T05:29:43.091Z,20.46
2022-07-31T05:32:00.555Z,20.52
2022-07-31T05:34:02.805Z,20.50
2022-07-31T05:36:05.114Z,20.58
2022-07-31T05:38:06.742Z,20.63
2022-07-31T05:40:13.780Z,20.58
2022-07-31T05:42:15.437Z,20.68
2022-07-31T05:44:17.118Z,20.77
2022-07-31T05:46:18.944Z,20.66
2022-07-31T05:48:20.762Z,20.67
2022-07-31T05:50:23.229Z,20.79
2022-07-31T05:52:24.926Z,20.86
2022-07-31T05:54:26.668Z,20.83
2022-07-31T05:56:28.358Z,20.98
2022-07-31T05:58:30.084Z,21.01
2022-07-31T06:00:32.265Z,20.99
2022-07-31T06:02:34.768Z,21.02
2022-07-31T06:04:36.457Z,20.94
2022-07-31T06:06:38.082Z,21.07
2022-07-31T06:08:39.781Z,21.24
2022-07-31T06:10:41.681Z,21.39
2022-07-31T06:12:43.385Z,21.37
2022-07-31T06:14:45.366Z,21.54
2022-07-31T06:16:49.749Z,21.78
2022-07-31T06:18:52.096Z,21.83
2022-07-31T06:20:53.770Z,21.94
2022-07-31T06:22:55.726Z,22.11
2022-07-31T06:24:57.419Z,22.15
2022-07-31T06:27:00.080Z,22.42
2022-07-31T06:29:01.709Z,22.16
2022-07-31T06:31:03.353Z,22.22
2022-07-31T06:33:08.458Z,22.13
2022-07-31T06:35:11.606Z,22.06
2022-07-31T06:37:13.269Z,21.96
2022-07-31T06:39:14.905Z,21.88
2022-07-31T06:41:34.829Z,22.06
2022-07-31T06:43:36.497Z,22.06
2022-07-31T06:45:51.079Z,22.02
2022-07-31T06:47:54.375Z,22.06
2022-07-31T06:49:56.413Z,22.11
2022-07-31T06:51:58.086Z,22.00
2022-07-31T06:54:05.303Z,21.97
2022-07-31T06:56:11.902Z,22.08
2022-07-31T06:58:13.541Z,22.18
2022-07-31T07:00:20.406Z,22.35
2022-07-31T07:02:22.615Z,22.47
2022-07-31T07:04:24.210Z,22.47
2022-07-31T07:06:45.838Z,22.44
2022-07-31T07:08:47.752Z,22.43
2022-07-31T07:10:49.456Z,22.54
2022-07-31T07:12:51.176Z,22.52
2022-07-31T07:14:52.991Z,22.55
2022-07-31T07:16:54.651Z,22.73
2022-07-31T07:18:56.291Z,22.04
2022-07-31T07:20:58.333Z,21.97
2022-07-31T07:23:00.019Z,21.64
2022-07-31T07:25:01.853Z,21.82
2022-07-31T07:27:03.613Z,22.06
2022-07-31T07:29:05.303Z,22.27
2022-07-31T07:31:07.138Z,22.44
2022-07-31T07:33:08.842Z,22.51
2022-07-31T07:35:12.559Z,22.49
2022-07-31T07:37:14.188Z,22.26
2022-07-31T07:39:15.892Z,22.24
2022-07-31T07:41:18.550Z,22.40
2022-07-31T07:43:20.720Z,22.48
2022-07-31T07:45:22.615Z,22.73
2022-07-31T07:47:24.325Z,22.80
2022-07-31T07:49:26.016Z,22.86
2022-07-31T07:51:27.845Z,22.89
2022-07-31T07:53:29.565Z,22.83
2022-07-31T07:55:37.360Z,22.80
2022-07-31T07:57:40.088Z,22.59
2022-07-31T07:59:42.460Z,22.65
2022-07-31T08:01:44.098Z,22.59
2022-07-31T08:03:48.390Z,22.50
2022-07-31T08:05:53.258Z,22.54
2022-07-31T08:07:54.962Z,22.46
2022-07-31T08:09:57.954Z,22.52
2022-07-31T08:12:00.586Z,22.73
2022-07-31T08:14:02.262Z,22.41
2022-07-31T08:16:04.239Z,22.27
2022-07-31T08:18:27.269Z,21.79
2022-07-31T08:20:30.422Z,21.65
2022-07-31T08:22:32.073Z,21.75
2022-07-31T08:24:34.103Z,21.80
2022-07-31T08:26:54.594Z,21.89
2022-07-31T08:28:56.192Z,22.13
2022-07-31T08:30:57.878Z,22.31
2022-07-31T08:32:59.484Z,22.46
2022-07-31T08:35:02.812Z,22.61
2022-07-31T08:38:01.692Z,22.74
2022-07-31T08:39:28.303Z,22.84
2022-07-31T08:41:30.354Z,22.82
2022-07-31T08:44:01.335Z,22.81
2022-07-31T08:45:54.073Z,22.87
2022-07-31T08:47:56.811Z,23.10
2022-07-31T08:49:58.914Z,23.19
2022-07-31T08:52:02.484Z,23.28
2022-07-31T08:54:10.707Z,23.44
2022-07-31T08:56:13.084Z,23.75
2022-07-31T08:58:14.770Z,23.97
2022-07-31T09:00:17.670Z,24.06
2022-07-31T09:02:19.437Z,24.18
2022-07-31T09:04:21.085Z,24.04
2022-07-31T09:06:22.753Z,23.93
2022-07-31T09:08:24.410Z,23.70
2022-07-31T09:10:27.648Z,23.79
2022-07-31T09:12:34.678Z,23.70
2022-07-31T09:14:36.791Z,23.54
2022-07-31T09:16:46.824Z,23.50
2022-07-31T09:19:02.911Z,23.41
2022-07-31T09:21:24.654Z,23.28
2022-07-31T09:23:27.832Z,23.35
2022-07-31T09:25:29.736Z,23.44
2022-07-31T09:27:31.355Z,23.60
2022-07-31T09:29:40.912Z,23.73
2022-07-31T09:31:42.618Z,23.74
2022-07-31T09:33:46.406Z,23.88
2022-07-31T09:35:52.747Z,24.08
2022-07-31T09:37:54.385Z,24.22
2022-07-31T09:39:57.325Z,24.14
2022-07-31T09:42:01.720Z,24.07
2022-07-31T09:44:18.313Z,24.01
2022-07-31T09:46:27.772Z,24.00
2022-07-31T09:48:29.931Z,24.09
2022-07-31T09:50:33.140Z,23.88
2022-07-31T09:52:35.923Z,23.89
2022-07-31T09:54:37.797Z,23.87
2022-07-31T09:56:39.442Z,23.95
2022-07-31T09:58:41.711Z,24.10
2022-07-31T10:00:43.678Z,24.31
2022-07-31T10:02:45.706Z,24.24
2022-07-31T10:04:48.626Z,24.21
2022-07-31T10:06:51.671Z,24.31
2022-07-31T10:08:54.097Z,24.48
2022-07-31T10:10:55.911Z,24.65
2022-07-31T10:13:00.411Z,24.58
2022-07-31T10:15:06.681Z,24.68
2022-07-31T10:17:09.466Z,24.76
2022-07-31T10:19:12.913Z,24.83
2022-07-31T10:21:15.971Z,24.71
2022-07-31T10:23:24.001Z,24.58
2022-07-31T10:25:28.193Z,24.57
2022-07-31T10:27:29.929Z,23.99
2022-07-31T10:29:32.898Z,24.18
2022-07-31T10:31:34.976Z,24.43
2022-07-31T10:33:45.014Z,24.57
2022-07-31T10:36:09.495Z,24.60
2022-07-31T10:38:30.537Z,24.67
2022-07-31T10:40:45.460Z,24.71
2022-07-31T10:43:13.446Z,24.94
2022-07-31T10:45:15.928Z,24.87
2022-07-31T10:47:18.670Z,24.85
2022-07-31T10:49:38.585Z,24.86
2022-07-31T10:51:50.134Z,25.07
2022-07-31T10:53:59.534Z,25.16
2022-07-31T10:56:04.063Z,25.34
2022-07-31T10:58:10.941Z,25.26
2022-07-31T11:00:17.370Z,25.21
2022-07-31T11:02:32.255Z,24.48
2022-07-31T11:04:33.988Z,24.38
2022-07-31T11:06:44.504Z,24.78
2022-07-31T11:08:48.247Z,25.08
2022-07-31T11:10:52.145Z,25.30
2022-07-31T11:13:05.103Z,25.43
2022-07-31T11:15:18.505Z,25.07
2022-07-31T11:18:22.429Z,24.72
2022-07-31T11:19:52.845Z,24.66
2022-07-31T11:21:57.362Z,24.11
2022-07-31T11:24:04.260Z,24.21
2022-07-31T11:26:08.874Z,24.50
2022-07-31T11:28:21.395Z,24.50
2022-07-31T11:30:23.088Z,24.30
2022-07-31T11:32:25.875Z,24.55
2022-07-31T11:34:27.992Z,24.76
2022-07-31T11:36:30.006Z,24.73
2022-07-31T11:38:31.676Z,24.52
2022-07-31T11:40:33.408Z,24.70
2022-07-31T11:42:42.569Z,24.81
2022-07-31T11:44:44.239Z,24.85
2022-07-31T11:46:45.950Z,24.57
2022-07-31T11:48:47.615Z,24.85
2022-07-31T11:50:50.595Z,25.04
2022-07-31T11:53:02.503Z,25.30
2022-07-31T11:55:09.838Z,25.34
2022-07-31T11:57:11.688Z,25.41
2022-07-31T11:59:42.737Z,25.72
2022-07-31T12:01:35.059Z,25.78
2022-07-31T12:03:38.147Z,25.45
2022-07-31T12:05:45.240Z,25.51
2022-07-31T12:07:46.952Z,25.25
2022-07-31T12:10:01.779Z,25.44
2022-07-31T12:12:05.919Z,25.59
2022-07-31T12:14:08.155Z,25.07
2022-07-31T12:16:11.311Z,25.33
2022-07-31T12:18:13.031Z,25.64
2022-07-31T12:20:29.796Z,25.61
2022-07-31T12:22:36.822Z,25.63
2022-07-31T12:24:39.524Z,25.77
2022-07-31T12:26:44.413Z,25.41
2022-07-31T12:29:16.321Z,25.54
2022-07-31T12:31:18.144Z,25.50
2022-07-31T12:33:19.757Z,25.69
2022-07-31T12:35:21.434Z,25.72
2022-07-31T12:37:23.159Z,25.60
2022-07-31T12:39:24.882Z,25.57
2022-07-31T12:41:46.534Z,25.71
2022-07-31T12:43:50.132Z,25.59
2022-07-31T12:45:54.345Z,25.87
2022-07-31T12:47:56.305Z,25.43
2022-07-31T12:49:58.734Z,25.37
2022-07-31T12:52:00.376Z,25.38
2022-07-31T12:54:05.729Z,25.25
2022-07-31T12:56:11.758Z,25.63
2022-07-31T12:58:13.404Z,25.89
2022-07-31T13:00:16.046Z,26.01
2022-07-31T13:02:17.827Z,26.13
2022-07-31T13:04:19.758Z,26.28
2022-07-31T13:06:22.568Z,26.41
2022-07-31T13:08:24.219Z,26.01
2022-07-31T13:10:31.810Z,25.47
2022-07-31T13:12:34.643Z,25.31
2022-07-31T13:14:36.381Z,25.23
2022-07-31T13:16:38.129Z,25.55
2022-07-31T13:18:40.057Z,25.47
2022-07-31T13:20:41.716Z,25.52
2022-07-31T13:22:43.368Z,25.61
2022-07-31T13:24:44.996Z,25.57
2022-07-31T13:26:47.356Z,25.55
2022-07-31T13:28:49.044Z,25.81
2022-07-31T13:30:54.947Z,25.77
2022-07-31T13:32:56.947Z,25.87
2022-07-31T13:35:25.886Z,26.06
2022-07-31T13:37:20.530Z,26.27
2022-07-31T13:39:22.387Z,26.25
2022-07-31T13:41:24.245Z,26.40
2022-07-31T13:43:25.910Z,26.32
2022-07-31T13:45:27.546Z,26.35
2022-07-31T13:47:51.576Z,26.43
2022-07-31T13:49:50.859Z,26.33
2022-07-31T13:51:52.495Z,26.42
2022-07-31T13:53:54.128Z,26.04
2022-07-31T13:55:56.680Z,26.03
2022-07-31T13:58:01.000Z,26.13
2022-07-31T14:00:03.670Z,26.25
2022-07-31T14:02:05.831Z,26.50
2022-07-31T14:04:07.600Z,26.51
2022-07-31T14:06:09.440Z,26.75
2022-07-31T14:08:30.533Z,26.62
2022-07-31T14:10:32.901Z,26.51
2022-07-31T14:12:37.267Z,26.67
2022-07-31T14:14:38.910Z,26.16
2022-07-31T14:16:42.073Z,26.05
2022-07-31T14:18:43.726Z,26.32
2022-07-31T14:20:46.274Z,26.58
2022-07-31T14:22:48.048Z,26.74
2022-07-31T14:24:51.281Z,26.89
2022-07-31T14:26:53.042Z,26.95
2022-07-31T14:28:54.713Z,27.06
2022-07-31T14:30:56.360Z,27.19
2022-07-31T14:32:58.210Z,27.36
2022-07-31T14:35:02.364Z,27.52
2022-07-31T14:37:06.661Z,27.46
2022-07-31T14:39:08.480Z,27.34
2022-07-31T14:41:10.126Z,27.26
2022-07-31T14:43:12.608Z,27.31
2022-07-31T14:45:15.047Z,27.43
2022-07-31T14:47:17.111Z,27.28
2022-07-31T14:49:18.764Z,27.26
2022-07-31T14:51:20.535Z,27.38
2022-07-31T14:53:22.278Z,27.52
2022-07-31T14:55:25.324Z,27.65
2022-07-31T14:57:31.605Z,27.78
2022-07-31T14:59:33.342Z,27.85
2022-07-31T15:01:35.021Z,27.87
2022-07-31T15:03:36.845Z,27.94
2022-07-31T15:06:41.397Z,27.99
2022-07-31T15:08:03.659Z,28.07
2022-07-31T15:10:06.556Z,27.98
2022-07-31T15:12:08.809Z,27.74
2022-07-31T15:14:10.487Z,27.78
2022-07-31T15:16:12.131Z,27.67
2022-07-31T15:18:13.806Z,27.77
2022-07-31T15:20:15.680Z,27.66
2022-07-31T15:22:19.246Z,27.63
2022-07-31T15:24:20.958Z,27.68
2022-07-31T15:26:22.715Z,27.80
2022-07-31T15:28:24.372Z,27.51
2022-07-31T15:30:26.042Z,27.34
2022-07-31T15:32:27.789Z,27.50
2022-07-31T15:34:29.567Z,27.72
2022-07-31T15:36:31.232Z,27.94
2022-07-31T15:38:32.978Z,27.99
2022-07-31T15:40:35.219Z,27.58
2022-07-31T15:42:40.489Z,27.45
2022-07-31T15:44:42.399Z,26.80
2022-07-31T15:46:44.080Z,26.65
2022-07-31T15:48:45.863Z,26.81
2022-07-31T15:50:47.538Z,26.89
2022-07-31T15:52:50.143Z,27.13
2022-07-31T15:54:52.845Z,27.37
2022-07-31T15:56:54.667Z,27.42
2022-07-31T15:58:56.729Z,27.55
2022-07-31T16:00:58.718Z,27.78
2022-07-31T16:03:01.452Z,27.93
2022-07-31T16:05:11.800Z,28.15
2022-07-31T16:08:32.999Z,28.22
2022-07-31T16:10:03.993Z,28.22
2022-07-31T16:12:06.835Z,28.19
2022-07-31T16:14:10.428Z,28.23
2022-07-31T16:16:12.025Z,28.39
2022-07-31T16:18:18.106Z,28.38
2022-07-31T16:20:26.677Z,28.34
2022-07-31T16:22:28.708Z,28.04
2022-07-31T16:24:30.387Z,28.12
2022-07-31T16:26:33.466Z,28.17
2022-07-31T16:28:35.079Z,28.10
2022-07-31T16:30:36.885Z,28.11
2022-07-31T16:32:38.552Z,28.22
2022-07-31T16:34:40.951Z,28.36
2022-07-31T16:36:44.182Z,28.35
2022-07-31T16:38:59.470Z,28.49
2022-07-31T16:41:07.452Z,28.50
2022-07-31T16:43:50.091Z,28.65
2022-07-31T16:45:30.936Z,28.49
2022-07-31T16:47:51.200Z,27.59
2022-07-31T16:49:54.078Z,27.56
2022-07-31T16:51:55.733Z,27.72
2022-07-31T16:54:13.452Z,27.93
2022-07-31T16:56:18.043Z,28.09
2022-07-31T16:58:24.667Z,27.88
2022-07-31T17:00:26.726Z,27.77
2022-07-31T17:02:28.459Z,27.75
2022-07-31T17:04:30.146Z,27.73
2022-07-31T17:06:36.367Z,27.67
2022-07-31T17:08:39.272Z,27.57
2022-07-31T17:10:41.120Z,27.53
2022-07-31T17:12:42.878Z,27.53
2022-07-31T17:14:44.585Z,27.50
2022-07-31T17:16:49.320Z,27.53
2022-07-31T17:18:52.555Z,27.45
2022-07-31T17:20:56.866Z,27.37
2022-07-31T17:22:58.905Z,27.36
2022-07-31T17:25:01.804Z,27.34
2022-07-31T17:27:05.553Z,27.31
2022-07-31T17:29:07.491Z,27.23
2022-07-31T17:31:09.168Z,27.14
2022-07-31T17:33:12.042Z,27.02
2022-07-31T17:35:13.778Z,26.87
2022-07-31T17:37:19.223Z,26.75
2022-07-31T17:39:20.906Z,26.68
2022-07-31T17:41:25.348Z,26.59
2022-07-31T17:43:27.909Z,26.49
2022-07-31T17:45:59.580Z,26.24
2022-07-31T17:48:08.507Z,26.04
2022-07-31T17:50:10.246Z,25.79
2022-07-31T17:52:12.457Z,25.66
2022-07-31T17:54:14.428Z,25.52
2022-07-31T17:56:16.494Z,25.36
2022-07-31T17:58:18.158Z,25.28
2022-07-31T18:00:19.875Z,25.23
2022-07-31T18:02:21.777Z,25.15
2022-07-31T18:04:23.451Z,25.10
2022-07-31T18:06:25.358Z,25.05
2022-07-31T18:08:29.294Z,25.05
2022-07-31T18:10:53.055Z,25.04
2022-07-31T18:12:57.508Z,25.03
2022-07-31T18:14:59.898Z,25.00
2022-07-31T18:17:02.109Z,24.98
2022-07-31T18:19:03.790Z,24.96
2022-07-31T18:21:05.484Z,24.92
2022-07-31T18:23:10.139Z,24.87
2022-07-31T18:25:12.303Z,24.80
2022-07-31T18:27:14.039Z,24.79
2022-07-31T18:29:17.125Z,24.77
2022-07-31T18:31:34.656Z,24.81
2022-07-31T18:33:42.526Z,24.82
2022-07-31T18:35:44.744Z,24.80
2022-07-31T18:37:46.669Z,24.78
2022-07-31T18:39:49.386Z,24.71
2022-07-31T18:41:51.360Z,24.69
2022-07-31T18:43:53.095Z,24.67
2022-07-31T18:45:54.814Z,24.65
2022-07-31T18:47:56.493Z,24.63
2022-07-31T18:50:59.712Z,24.60
2022-07-31T18:52:20.031Z,24.57
2022-07-31T18:54:21.698Z,24.48
2022-07-31T18:56:24.618Z,24.43
2022-07-31T18:58:26.366Z,24.42
2022-07-31T19:00:28.620Z,24.42
2022-07-31T19:02:30.417Z,24.36
2022-07-31T19:04:32.155Z,24.32
2022-07-31T19:06:33.833Z,24.26
2022-07-31T19:08:35.481Z,24.24
2022-07-31T19:10:38.258Z,24.20
2022-07-31T19:12:40.016Z,24.16
2022-07-31T19:14:41.719Z,24.10
2022-07-31T19:16:43.874Z,24.01
2022-07-31T19:18:50.225Z,23.97
2022-07-31T19:21:00.103Z,23.99
2022-07-31T19:23:14.393Z,23.95
2022-07-31T19:25:16.028Z,23.93
2022-07-31T19:27:18.459Z,23.87
2022-07-31T19:29:20.746Z,23.85
2022-07-31T19:31:22.761Z,23.85
2022-07-31T19:33:24.832Z,23.80
2022-07-31T19:35:26.598Z,23.75
2022-07-31T19:37:28.283Z,23.73
2022-07-31T19:39:29.977Z,23.70
2022-07-31T19:41:33.328Z,23.67
2022-07-31T19:43:35.899Z,23.54
2022-07-31T19:45:37.590Z,23.50
2022-07-31T19:47:59.366Z,23.45
2022-07-31T19:50:01.341Z,23.41
2022-07-31T19:52:03.270Z,23.41
2022-07-31T19:54:05.255Z,23.30
2022-07-31T19:56:07.023Z,23.29
2022-07-31T19:58:08.761Z,23.22
2022-07-31T20:00:12.629Z,23.24
2022-07-31T20:02:16.982Z,23.14
2022-07-31T20:04:18.843Z,23.11
2022-07-31T20:06:20.565Z,23.06
2022-07-31T20:08:23.048Z,23.07
2022-07-31T20:10:25.439Z,23.10
2022-07-31T20:12:27.125Z,23.08
2022-07-31T20:14:28.761Z,23.10
2022-07-31T20:16:30.879Z,23.08
2022-07-31T20:18:32.694Z,23.04
2022-07-31T20:20:34.354Z,23.04
2022-07-31T20:22:35.959Z,23.07
2022-07-31T20:24:38.709Z,23.07
2022-07-31T20:26:40.355Z,23.03
2022-07-31T20:28:42.570Z,23.03
2022-07-31T20:30:44.295Z,22.99
2022-07-31T20:32:48.366Z,22.92
2022-07-31T20:34:50.418Z,22.91
2022-07-31T20:36:52.862Z,22.84
2022-07-31T20:38:55.676Z,22.80
2022-07-31T20:40:57.327Z,22.74
2022-07-31T20:42:59.096Z,22.72
2022-07-31T20:45:00.742Z,22.74
2022-07-31T20:47:02.360Z,22.80
2022-07-31T20:49:04.220Z,22.83
2022-07-31T20:51:09.136Z,22.84
2022-07-31T20:53:10.773Z,22.81
2022-07-31T20:55:12.458Z,22.76
2022-07-31T20:57:15.760Z,22.75
2022-07-31T20:59:17.505Z,22.69
2022-07-31T21:01:21.354Z,22.66
2022-07-31T21:03:23.129Z,22.69
2022-07-31T21:05:29.270Z,22.68
2022-07-31T21:07:30.995Z,22.60
2022-07-31T21:09:33.079Z,22.58
2022-07-31T21:11:34.681Z,22.60
2022-07-31T21:13:36.413Z,22.58
2022-07-31T21:15:43.229Z,22.44
2022-07-31T21:17:46.240Z,22.48
2022-07-31T21:19:47.984Z,22.49
2022-07-31T21:21:51.134Z,22.51
2022-07-31T21:23:52.883Z,22.55
2022-07-31T21:25:57.207Z,22.51
2022-07-31T21:27:59.208Z,22.50
2022-07-31T21:30:01.217Z,22.47
2022-07-31T21:32:03.288Z,22.36
2022-07-31T21:34:05.364Z,22.37
2022-07-31T21:36:07.485Z,22.33
2022-07-31T21:38:14.735Z,22.33
2022-07-31T21:40:16.876Z,22.38
2022-07-31T21:42:19.029Z,22.36
2022-07-31T21:44:20.843Z,22.38
2022-07-31T21:46:24.237Z,22.36
2022-07-31T21:48:27.265Z,22.27
2022-07-31T21:50:29.531Z,22.23
2022-07-31T21:52:31.269Z,22.16
2022-07-31T21:54:32.993Z,22.19
2022-07-31T21:56:34.782Z,22.23
2022-07-31T21:58:36.960Z,22.22
2022-07-31T22:00:38.707Z,22.26
2022-07-31T22:02:43.024Z,22.26
2022-07-31T22:05:03.411Z,22.26
2022-07-31T22:07:23.854Z,22.28
2022-07-31T22:09:26.581Z,22.26
2022-07-31T22:11:28.372Z,22.27
2022-07-31T22:13:30.020Z,22.30
2022-07-31T22:15:50.443Z,22.26
2022-07-31T22:17:53.517Z,22.24
2022-07-31T22:19:58.647Z,22.16
2022-07-31T22:22:01.156Z,21.93
2022-07-31T22:24:03.694Z,21.88
2022-07-31T22:26:05.594Z,21.75
2022-07-31T22:28:07.671Z,21.65
2022-07-31T22:30:10.649Z,21.61
2022-07-31T22:32:12.499Z,21.43
2022-07-31T22:34:14.273Z,21.47
2022-07-31T22:36:35.935Z,21.60
2022-07-31T22:38:38.207Z,21.71
2022-07-31T22:40:44.015Z,21.70
2022-07-31T22:42:57.505Z,21.71
2022-07-31T22:45:00.095Z,21.72
2022-07-31T22:47:01.929Z,21.73
2022-07-31T22:49:06.138Z,21.76
2022-07-31T22:51:08.935Z,21.76
2022-07-31T22:53:12.288Z,21.78
2022-07-31T22:55:14.139Z,21.78
2022-07-31T22:57:16.384Z,21.78
2022-07-31T22:59:18.283Z,21.85
2022-07-31T23:01:19.880Z,21.81
2022-07-31T23:03:21.480Z,21.84
2022-07-31T23:05:23.253Z,21.84
2022-07-31T23:07:24.926Z,21.88
2022-07-31T23:09:26.606Z,21.85
2022-07-31T23:11:28.335Z,21.83
2022-07-31T23:13:30.070Z,21.76
2022-07-31T23:15:31.815Z,21.71
2022-07-31T23:17:33.488Z,21.71
2022-07-31T23:19:35.142Z,21.70
2022-07-31T23:21:36.877Z,21.71
2022-07-31T23:23:38.521Z,21.67
2022-07-31T23:25:40.155Z,21.61
2022-07-31T23:27:41.812Z,21.57
2022-07-31T23:29:43.469Z,21.52
2022-07-31T23:31:45.122Z,21.49
2022-07-31T23:33:47.427Z,21.48
2022-07-31T23:35:49.071Z,21.50
2022-07-31T23:37:50.747Z,21.49
2022-07-31T23:39:52.432Z,21.44
2022-07-31T23:42:12.945Z,21.43
2022-07-31T23:44:17.744Z,21.43
2022-07-31T23:46:26.896Z,21.42
2022-07-31T23:48:29.930Z,21.43
2022-07-31T23:50:32.003Z,21.43
2022-07-31T23:52:33.583Z,21.43
2022-07-31T23:54:35.178Z,21.47
2022-07-31T23:56:36.948Z,21.50
2022-07-31T23:58:38.588Z,21.49
